Time;durP1;ratioP1;P1;durP2;ratioP2;P2;SDS_P1;SDS_P2;PMS_P1;PMS_P2;Temp;Humidity;BMP_temperature;BMP_pressure;BME280_temperature;BME280_humidity;BME280_pressure;Samples;Min_cycle;Max_cycle;Signal;HPM_P1;HPM_P2
2024/02/16 00:02:18;;;;;;;8.30;6.35;;;;;;;9.51;100.00;102946.81;5058086;28;20033;-70
2024/02/16 00:04:43;;;;;;;9.93;6.63;;;;;;;9.45;100.00;102969.50;5060960;28;20033;-73
2024/02/16 00:07:09;;;;;;;10.05;6.60;;;;;;;9.61;100.00;102946.22;5062454;28;20503;-71
2024/02/16 00:09:34;;;;;;;9.02;6.93;;;;;;;9.00;100.00;102822.03;5060576;28;20032;-70
2024/02/16 00:12:00;;;;;;;10.63;7.30;;;;;;;9.64;100.00;102920.91;5062223;28;20414;-70
2024/02/16 00:14:25;;;;;;;9.10;6.53;;;;;;;9.53;100.00;103266.06;5062133;28;20036;-70
2024/02/16 00:16:51;;;;;;;10.20;7.30;;;;;;;9.05;100.00;103168.13;5062372;28;20610;-70
2024/02/16 00:19:16;;;;;;;10.27;7.32;;;;;;;9.17;100.00;103185.41;5065360;28;20033;-71
2024/02/16 00:21:42;;;;;;;11.80;7.95;;;;;;;8.96;100.00;103178.00;5064597;28;20033;-71
2024/02/16 00:24:08;;;;;;;11.57;8.52;;;;;;;9.44;100.00;103288.66;5060954;28;21551;-70
2024/02/16 00:26:33;;;;;;;11.23;8.73;;;;;;;9.55;100.00;103342.28;5077444;28;20025;-71
2024/02/16 00:28:59;;;;;;;11.70;9.00;;;;;;;8.74;100.00;103234.84;5060765;28;20040;-71
2024/02/16 00:31:24;;;;;;;10.85;7.93;;;;;;;9.57;100.00;103383.84;5057909;28;20125;-70
2024/02/16 00:33:49;;;;;;;11.15;8.65;;;;;;;9.06;100.00;103303.50;5066122;28;20098;-70
2024/02/16 00:36:15;;;;;;;13.02;9.52;;;;;;;9.03;100.00;103334.72;5058968;28;20389;-72
2024/02/16 00:38:40;;;;;;;17.73;12.18;;;;;;;9.12;100.00;103351.94;5056081;28;20132;-70
2024/02/16 00:41:07;;;;;;;12.27;9.80;;;;;;;9.61;100.00;103439.88;5061144;28;20028;-70
2024/02/16 00:43:32;;;;;;;11.95;9.30;;;;;;;9.69;100.00;103417.25;5058843;28;20029;-70
2024/02/16 00:45:58;;;;;;;11.85;9.32;;;;;;;9.39;100.00;103411.19;5059312;28;20506;-71
2024/02/16 00:48:24;;;;;;;13.10;9.52;;;;;;;9.50;100.00;103468.31;5063948;28;20579;-69
2024/02/16 00:50:49;;;;;;;12.77;9.80;;;;;;;9.68;100.00;103475.66;5059221;28;20024;-70
2024/02/16 00:53:14;;;;;;;14.18;9.80;;;;;;;9.70;100.00;103500.31;5064199;28;20450;-69
2024/02/16 00:55:41;;;;;;;12.45;9.98;;;;;;;9.12;100.00;103423.88;5061096;28;20090;-70
2024/02/16 00:58:07;;;;;;;14.25;10.43;;;;;;;9.01;100.00;103414.16;5059545;28;20085;-71
2024/02/16 01:00:32;;;;;;;12.52;9.70;;;;;;;9.61;100.00;103528.81;5059663;28;20057;-70
2024/02/16 01:02:58;;;;;;;13.38;10.15;;;;;;;9.51;100.00;103564.00;5062919;28;20410;-70
2024/02/16 01:05:23;;;;;;;13.10;10.52;;;;;;;9.55;100.00;103555.66;5060016;28;20025;-69
2024/02/16 01:07:49;;;;;;;12.73;10.35;;;;;;;9.40;100.00;103533.16;5061159;28;20146;-70
2024/02/16 01:10:14;;;;;;;13.88;10.82;;;;;;;9.66;100.00;103601.78;5059837;28;20203;-70
2024/02/16 01:12:40;;;;;;;14.90;10.30;;;;;;;9.64;100.00;103576.31;5062820;28;20407;-71
2024/02/16 01:15:06;;;;;;;13.57;10.70;;;;;;;9.56;100.00;103613.31;5059144;28;20028;-69
2024/02/16 01:17:32;;;;;;;12.88;10.27;;;;;;;8.93;100.00;103497.66;5062063;28;20035;-71
2024/02/16 01:19:58;;;;;;;12.73;10.05;;;;;;;9.09;100.00;103502.44;5058967;28;20068;-70
2024/02/16 01:22:23;;;;;;;12.80;10.73;;;;;;;9.68;100.00;103595.94;5059844;28;20488;-70
2024/02/16 01:24:49;;;;;;;12.68;10.57;;;;;;;9.85;100.00;103581.25;5062109;28;20037;-75
2024/02/16 01:27:15;;;;;;;14.13;10.23;;;;;;;9.24;100.00;103481.81;5056575;28;20097;-71
2024/02/16 01:29:41;;;;;;;12.40;10.60;;;;;;;9.72;100.00;103566.41;5063188;28;20488;-69
2024/02/16 01:32:07;;;;;;;14.38;10.70;;;;;;;9.95;100.00;103527.34;5055681;28;20024;-73
2024/02/16 01:34:32;;;;;;;12.65;10.32;;;;;;;9.67;100.00;103525.59;5059079;28;20071;-69
2024/02/16 01:36:58;;;;;;;17.35;10.90;;;;;;;9.28;100.00;103404.94;5056080;28;20055;-70
2024/02/16 01:39:24;;;;;;;14.93;11.55;;;;;;;8.93;100.00;103357.22;5060715;28;20031;-70
2024/02/16 01:41:49;;;;;;;14.55;11.63;;;;;;;9.11;100.00;103384.06;5060681;28;20043;-71
2024/02/16 01:44:16;;;;;;;14.57;11.18;;;;;;;9.81;100.00;103457.44;5059724;28;20491;-69
2024/02/16 01:46:42;;;;;;;14.38;10.52;;;;;;;8.75;100.00;103281.38;5062171;28;20029;-69
2024/02/16 01:49:08;;;;;;;13.63;11.10;;;;;;;9.76;100.00;103448.81;5060328;28;20029;-69
2024/02/16 01:51:35;;;;;;;14.55;10.48;;;;;;;9.76;100.00;103453.91;5059678;28;20021;-70
2024/02/16 01:54:01;;;;;;;12.90;10.20;;;;;;;9.07;100.00;103320.47;5066472;28;20520;-69
2024/02/16 01:56:27;;;;;;;13.88;10.80;;;;;;;9.79;100.00;103429.44;5056969;28;20036;-70
2024/02/16 01:58:52;;;;;;;12.35;10.20;;;;;;;8.84;100.00;103298.53;5056704;28;20045;-71
2024/02/16 02:01:18;;;;;;;14.18;10.63;;;;;;;9.72;100.00;103432.63;5060686;28;20033;-70
2024/02/16 02:03:43;;;;;;;14.63;11.45;;;;;;;9.55;100.00;103383.81;5056949;28;20028;-73
2024/02/16 02:06:09;;;;;;;13.70;10.43;;;;;;;9.54;100.00;103426.94;5061027;28;20059;-69
2024/02/16 02:08:34;;;;;;;11.65;10.13;;;;;;;8.91;100.00;103303.03;5062267;28;20041;-68
2024/02/16 02:10:59;;;;;;;13.75;10.68;;;;;;;9.24;100.00;103321.84;5057185;28;20485;-69
2024/02/16 02:13:25;;;;;;;13.85;10.80;;;;;;;9.51;100.00;103391.28;5057234;28;20093;-70
2024/02/16 02:15:50;;;;;;;12.95;10.52;;;;;;;9.81;100.00;103398.97;5056993;28;20028;-71
2024/02/16 02:18:16;;;;;;;12.90;10.07;;;;;;;9.79;100.00;103385.38;5059616;28;20051;-69
2024/02/16 02:20:42;;;;;;;11.57;10.20;;;;;;;9.33;100.00;103274.75;5058330;28;20047;-71
2024/02/16 02:23:08;;;;;;;11.48;9.93;;;;;;;9.79;100.00;103311.66;5059072;28;20028;-71
2024/02/16 02:25:34;;;;;;;12.70;10.13;;;;;;;8.88;100.00;103100.78;5055265;28;20028;-69
2024/02/16 02:28:02;;;;;;;13.00;9.98;;;;;;;9.15;100.00;103165.03;5058755;28;20060;-69
2024/02/16 02:30:28;;;;;;;12.77;10.25;;;;;;;9.13;100.00;103080.38;5057128;28;20083;-69
2024/02/16 02:32:53;;;;;;;14.07;10.38;;;;;;;9.90;100.00;103204.44;5058638;28;20511;-71
2024/02/16 02:35:19;;;;;;;12.98;9.90;;;;;;;8.67;100.00;103011.41;5062753;28;20104;-69
2024/02/16 02:37:44;;;;;;;13.13;10.65;;;;;;;9.87;100.00;103224.69;5060265;28;20040;-71
2024/02/16 02:40:10;;;;;;;15.15;10.10;;;;;;;9.54;100.00;103123.03;5058018;28;20064;-70
2024/02/16 02:42:35;;;;;;;13.82;10.70;;;;;;;9.80;100.00;103182.16;5054777;28;20028;-70
2024/02/16 02:45:02;;;;;;;14.50;10.73;;;;;;;9.72;100.00;103176.00;5055798;28;20119;-70
2024/02/16 02:47:27;;;;;;;14.80;10.82;;;;;;;9.60;100.00;103189.22;5059112;28;20082;-70
2024/02/16 02:49:53;;;;;;;12.98;10.48;;;;;;;9.78;100.00;103158.38;5059716;28;20028;-69
2024/02/16 02:52:21;;;;;;;13.55;10.68;;;;;;;9.38;100.00;103075.16;5059760;28;20033;-69
2024/02/16 02:54:46;;;;;;;13.18;10.13;;;;;;;9.71;100.00;103120.03;5057803;28;20063;-73
2024/02/16 02:57:12;;;;;;;13.57;9.90;;;;;;;9.42;100.00;103041.41;5059281;28;20033;-71
2024/02/16 02:59:37;;;;;;;13.07;9.70;;;;;;;9.17;100.00;102982.34;5056230;28;20059;-70
2024/02/16 03:02:03;;;;;;;14.38;10.50;;;;;;;8.54;100.00;102874.91;5058120;28;20024;-70
2024/02/16 03:04:28;;;;;;;12.40;10.13;;;;;;;9.76;100.00;103035.53;5058001;28;20078;-70
2024/02/16 03:06:54;;;;;;;13.23;9.57;;;;;;;9.01;100.00;102907.50;5055290;28;20124;-71
2024/02/16 03:09:19;;;;;;;12.50;9.98;;;;;;;9.83;100.00;102972.97;5063104;28;20552;-70
2024/02/16 03:11:44;;;;;;;13.23;10.23;;;;;;;9.68;100.00;102927.78;5059071;28;20033;-73
2024/02/16 03:14:10;;;;;;;11.73;9.63;;;;;;;9.63;100.00;102944.56;5055885;28;20037;-69
2024/02/16 03:16:35;;;;;;;13.75;10.48;;;;;;;9.03;100.00;102852.53;5056529;28;20555;-70
2024/02/16 03:19:01;;;;;;;13.52;11.20;;;;;;;9.77;100.00;102925.44;5059488;28;20090;-69
2024/02/16 03:21:27;;;;;;;12.68;10.38;;;;;;;9.50;100.00;102937.50;5065228;28;20120;-70
2024/02/16 03:23:52;;;;;;;12.20;10.32;;;;;;;9.41;100.00;102920.34;5063303;28;20025;-71
2024/02/16 03:26:20;;;;;;;14.88;10.90;;;;;;;9.55;100.00;102920.66;5060784;28;20033;-74
2024/02/16 03:28:49;;;;;;;13.48;11.10;;;;;;;8.63;100.00;102629.22;5057647;28;20029;-72
2024/02/16 03:31:24;;;;;;;14.32;10.93;;;;;;;9.60;100.00;102700.69;5062058;28;20024;-70
2024/02/16 03:33:51;;;;;;;16.80;11.68;;;;;;;9.43;100.00;102666.44;5051943;28;20037;-73
2024/02/16 03:36:19;;;;;;;14.88;12.45;;;;;;;9.42;100.00;102730.78;5054386;28;20457;-71
2024/02/16 03:38:46;;;;;;;14.48;12.45;;;;;;;8.83;100.00;102660.97;5055511;28;20025;-71
2024/02/16 03:41:16;;;;;;;14.05;11.90;;;;;;;8.93;100.00;102718.69;5055831;28;20025;-71
2024/02/16 03:43:42;;;;;;;16.58;12.75;;;;;;;8.95;100.00;102787.22;5056538;28;20617;-69
2024/02/16 03:46:08;;;;;;;14.50;12.18;;;;;;;9.21;100.00;102763.31;5061754;28;20032;-72
2024/02/16 03:48:34;;;;;;;14.90;11.57;;;;;;;9.55;100.00;102806.38;5059865;28;20028;-71
2024/02/16 03:50:59;;;;;;;13.43;11.65;;;;;;;8.58;100.00;102639.25;5058321;28;20041;-72
2024/02/16 03:53:25;;;;;;;14.00;11.07;;;;;;;9.05;100.00;102700.34;5062414;28;20020;-71
2024/02/16 03:55:51;;;;;;;13.68;11.00;;;;;;;9.60;100.00;102792.09;5059123;28;20506;-70
2024/02/16 03:58:16;;;;;;;14.07;10.82;;;;;;;9.19;100.00;102688.81;5054744;28;20041;-69
2024/02/16 04:00:42;;;;;;;12.43;10.32;;;;;;;9.38;100.00;102698.53;5059451;28;20020;-70
2024/02/16 04:03:09;;;;;;;12.35;10.38;;;;;;;8.48;100.00;102638.97;5053450;28;20025;-69
2024/02/16 04:05:35;;;;;;;16.42;11.65;;;;;;;8.94;100.00;102668.78;5060741;28;20031;-70
2024/02/16 04:08:02;;;;;;;13.63;11.60;;;;;;;9.05;100.00;102674.97;5054146;28;20033;-70
2024/02/16 04:10:31;;;;;;;16.58;12.35;;;;;;;9.28;100.00;102737.22;5059179;28;20037;-70
2024/02/16 04:12:56;;;;;;;18.83;14.93;;;;;;;9.13;100.00;102714.91;5049177;28;20120;-70
2024/02/16 04:15:22;;;;;;;20.95;16.95;;;;;;;9.63;100.00;102794.69;5055228;28;20164;-70
2024/02/16 04:17:48;;;;;;;20.27;16.73;;;;;;;8.93;100.00;102700.06;5054370;28;20111;-70
2024/02/16 04:20:15;;;;;;;21.40;16.85;;;;;;;8.45;100.00;102647.38;5055574;28;20480;-70
2024/02/16 04:22:41;;;;;;;22.23;16.80;;;;;;;9.69;100.00;102799.91;5060414;28;20864;-70
2024/02/16 04:25:08;;;;;;;32.72;19.30;;;;;;;9.60;100.00;102800.59;5058467;28;20032;-70
2024/02/16 04:27:34;;;;;;;28.77;20.15;;;;;;;9.74;100.00;102830.50;5058698;28;20052;-69
2024/02/16 04:30:00;;;;;;;27.90;18.48;;;;;;;8.65;100.00;102800.88;5058571;28;20143;-71
2024/02/16 04:32:25;;;;;;;45.78;25.30;;;;;;;9.41;100.00;102927.09;5056491;28;20024;-69
2024/02/16 04:34:55;;;;;;;30.60;20.05;;;;;;;8.91;100.00;102811.66;5058826;28;20112;-69
2024/02/16 04:37:21;;;;;;;32.03;22.80;;;;;;;9.51;100.00;102917.19;5054922;28;20028;-70
2024/02/16 04:39:47;;;;;;;36.22;24.45;;;;;;;9.61;100.00;102948.75;5055019;28;20040;-70
2024/02/16 04:42:12;;;;;;;40.50;24.55;;;;;;;9.17;100.00;102955.25;5055613;28;20025;-74
2024/02/16 04:44:38;;;;;;;35.10;23.60;;;;;;;9.14;100.00;102932.34;5053641;28;20511;-73
2024/02/16 04:47:04;;;;;;;32.72;22.33;;;;;;;9.51;100.00;103007.75;5050650;28;20407;-70
2024/02/16 04:49:29;;;;;;;28.70;20.08;;;;;;;9.49;100.00;103007.72;5056788;28;20530;-70
2024/02/16 04:51:55;;;;;;;27.00;18.70;;;;;;;9.35;100.00;103067.44;5053229;28;20535;-70
2024/02/16 04:54:20;;;;;;;30.45;17.42;;;;;;;9.43;100.00;103062.56;5057119;28;20029;-69
2024/02/16 04:56:46;;;;;;;37.38;23.45;;;;;;;8.64;100.00;102915.78;5053967;28;20020;-68
2024/02/16 04:59:11;;;;;;;24.40;16.33;;;;;;;9.50;100.00;103031.44;5054334;28;20131;-68
2024/02/16 05:01:37;;;;;;;30.05;18.25;;;;;;;8.86;100.00;102866.50;5047061;28;20511;-73
2024/02/16 05:04:02;;;;;;;31.30;18.52;;;;;;;9.26;100.00;103023.19;5051555;28;20591;-68
2024/02/16 05:06:28;;;;;;;28.00;19.90;;;;;;;9.24;100.00;102990.16;5056748;28;20036;-70
2024/02/16 05:08:53;;;;;;;40.92;23.88;;;;;;;8.70;100.00;102869.44;5053642;28;20447;-68
2024/02/16 05:11:19;;;;;;;38.25;27.65;;;;;;;8.29;100.00;102819.31;5051902;28;20423;-71
2024/02/16 05:13:45;;;;;;;48.88;32.72;;;;;;;9.41;100.00;102977.88;5051986;28;20033;-68
2024/02/16 05:16:11;;;;;;;43.38;30.58;;;;;;;8.88;100.00;102884.28;5050516;28;20028;-68
2024/02/16 05:18:37;;;;;;;23.77;18.63;;;;;;;9.27;100.00;102957.22;5051405;28;20044;-69
2024/02/16 05:21:03;;;;;;;13.75;10.63;;;;;;;8.75;100.00;102767.28;5053708;28;20028;-69
2024/02/16 05:23:29;;;;;;;15.02;9.63;;;;;;;9.49;100.00;102840.13;5052790;28;20040;-67
2024/02/16 05:25:54;;;;;;;13.23;9.30;;;;;;;8.87;100.00;102632.28;5056361;28;20889;-71
2024/02/16 05:28:20;;;;;;;12.45;9.35;;;;;;;9.03;100.00;102593.72;5056119;28;20041;-70
2024/02/16 05:30:45;;;;;;;9.70;7.13;;;;;;;9.50;100.00;102686.94;5057572;28;20028;-69
2024/02/16 05:33:11;;;;;;;10.57;7.72;;;;;;;9.16;100.00;102511.94;5052475;28;20031;-70
2024/02/16 05:35:39;;;;;;;9.10;7.30;;;;;;;9.55;100.00;102525.34;5052658;28;20098;-71
2024/02/16 05:38:10;;;;;;;11.57;8.73;;;;;;;8.93;100.00;102449.78;5052927;28;20039;-68
2024/02/16 05:40:53;;;;;;;10.60;9.15;;;;;;;8.79;100.00;102362.41;5052028;28;20044;-72
2024/02/16 05:43:19;;;;;;;29.60;18.05;;;;;;;9.57;100.00;102456.78;5047373;28;20032;-70
2024/02/16 05:45:46;;;;;;;65.18;35.63;;;;;;;9.57;100.00;102482.19;5052269;28;20069;-69
2024/02/16 05:48:12;;;;;;;35.05;18.45;;;;;;;10.81;100.00;102487.41;5059580;28;20563;-69
2024/02/16 05:50:37;;;;;;;38.17;25.42;;;;;;;9.92;100.00;102603.06;5056762;28;20124;-69
2024/02/16 05:53:03;;;;;;;35.67;23.30;;;;;;;8.83;100.00;102492.69;5062239;28;20410;-70
2024/02/16 05:55:29;;;;;;;25.52;17.33;;;;;;;9.62;100.00;102584.72;5060880;28;20037;-69
2024/02/16 05:57:54;;;;;;;26.52;18.02;;;;;;;9.04;100.00;102439.78;5061078;28;20044;-69
2024/02/16 06:00:21;;;;;;;37.08;27.50;;;;;;;9.44;100.00;102427.84;5060242;28;20502;-69
2024/02/16 06:02:47;;;;;;;37.05;26.38;;;;;;;8.63;100.00;102323.25;5058006;28;20025;-70
2024/02/16 06:05:13;;;;;;;62.63;43.30;;;;;;;9.16;100.00;102410.44;5060125;28;20035;-69
2024/02/16 06:07:39;;;;;;;44.78;29.83;;;;;;;9.77;100.00;102450.34;5059616;28;20028;-69
2024/02/16 06:10:07;;;;;;;30.38;23.23;;;;;;;9.98;100.00;102437.13;5059396;28;20525;-70
2024/02/16 06:12:33;;;;;;;26.45;18.77;;;;;;;9.44;100.00;102406.66;5054340;28;20036;-69
2024/02/16 06:14:59;;;;;;;25.80;18.15;;;;;;;9.50;100.00;102371.19;5057777;28;20109;-69
2024/02/16 06:17:24;;;;;;;21.02;15.00;;;;;;;9.30;100.00;102298.97;5074679;28;20418;-70
2024/02/16 06:19:50;;;;;;;28.30;16.30;;;;;;;9.70;100.00;102392.69;5065190;28;20549;-68
2024/02/16 06:22:16;;;;;;;25.13;16.98;;;;;;;9.69;100.00;102360.47;5059324;28;20491;-70
2024/02/16 06:24:41;;;;;;;22.45;15.60;;;;;;;9.60;100.00;102393.38;5056802;28;20418;-69
2024/02/16 06:27:08;;;;;;;24.17;17.52;;;;;;;9.78;100.00;102359.75;5056391;28;20431;-69
2024/02/16 06:29:34;;;;;;;25.90;18.63;;;;;;;9.73;100.00;102324.13;5059365;28;20032;-69
2024/02/16 06:31:59;;;;;;;24.48;17.42;;;;;;;9.80;100.00;102337.75;5056770;28;20126;-69
2024/02/16 06:34:25;;;;;;;27.65;20.25;;;;;;;8.82;100.00;102176.44;5057183;28;20514;-68
2024/02/16 06:36:50;;;;;;;33.92;25.40;;;;;;;9.79;100.00;102352.16;5058462;28;20044;-70
2024/02/16 06:39:18;;;;;;;33.72;23.15;;;;;;;9.59;100.00;102367.13;5056751;28;20462;-68
2024/02/16 06:41:45;;;;;;;33.90;24.17;;;;;;;9.14;100.00;102200.59;5058256;28;20032;-68
2024/02/16 06:44:11;;;;;;;39.72;25.52;;;;;;;9.51;100.00;102385.59;5057549;28;20047;-68
2024/02/16 06:46:36;;;;;;;24.98;16.15;;;;;;;9.37;100.00;102371.81;5056727;28;20396;-68
2024/02/16 06:49:02;;;;;;;23.63;15.00;;;;;;;9.36;100.00;102372.69;5059372;28;20090;-68
2024/02/16 06:51:28;;;;;;;21.13;15.52;;;;;;;9.59;100.00;102389.97;5054694;28;20032;-70
2024/02/16 06:53:54;;;;;;;25.13;15.60;;;;;;;9.70;100.00;102366.41;5058555;28;20039;-67
2024/02/16 06:56:20;;;;;;;24.33;16.70;;;;;;;9.30;100.00;102255.81;5058815;28;20028;-68
2024/02/16 06:58:46;;;;;;;17.95;12.88;;;;;;;9.73;100.00;102283.47;5053741;28;20055;-68
2024/02/16 07:01:16;;;;;;;18.95;14.73;;;;;;;9.17;100.00;102167.66;5058122;28;20037;-69
2024/02/16 07:03:43;;;;;;;19.85;16.20;;;;;;;9.47;100.00;102094.41;5054593;28;20039;-69
2024/02/16 07:06:13;;;;;;;15.32;9.93;;;;;;;9.63;100.00;102092.03;5060325;28;20044;-72
2024/02/16 07:08:42;;;;;;;19.33;14.68;;;;;;;10.09;100.00;102128.88;5053933;28;20490;-68
2024/02/16 07:11:11;;;;;;;16.85;12.80;;;;;;;9.52;100.00;101998.81;5064427;28;20131;-67
2024/02/16 07:13:37;;;;;;;12.27;8.63;;;;;;;10.42;100.00;102019.84;5063700;28;20472;-69
2024/02/16 07:16:03;;;;;;;15.65;11.18;;;;;;;10.27;100.00;101996.03;5055759;28;20399;-69
2024/02/16 07:18:30;;;;;;;14.07;9.77;;;;;;;10.41;100.00;101885.94;5055897;28;20503;-69
2024/02/16 07:20:56;;;;;;;13.07;10.52;;;;;;;10.69;100.00;101833.44;5058582;28;20025;-70
2024/02/16 07:23:21;;;;;;;19.58;14.02;;;;;;;10.18;100.00;101862.09;5062377;28;20146;-69
2024/02/16 07:25:48;;;;;;;21.77;13.85;;;;;;;9.87;100.00;101663.78;5059299;28;20021;-69
2024/02/16 07:28:14;;;;;;;19.10;13.27;;;;;;;9.97;100.00;101656.19;5059033;28;20035;-70
2024/02/16 07:30:39;;;;;;;18.65;12.68;;;;;;;10.48;100.00;101609.63;5059914;28;20025;-68
2024/02/16 07:33:08;;;;;;;14.05;9.98;;;;;;;10.63;100.00;101543.50;5053375;28;20040;-71
2024/02/16 07:35:35;;;;;;;12.10;9.23;;;;;;;10.51;100.00;101535.03;5056358;28;20033;-68
2024/02/16 07:38:04;;;;;;;11.80;7.57;;;;;;;10.71;100.00;101628.25;5061410;28;20037;-69
2024/02/16 07:40:29;;;;;;;8.82;6.35;;;;;;;10.61;100.00;101572.31;5063727;28;20104;-69
2024/02/16 07:42:54;;;;;;;7.72;5.70;;;;;;;10.57;100.00;101513.00;5056343;28;20139;-68
2024/02/16 07:45:20;;;;;;;9.73;6.07;;;;;;;10.54;100.00;101537.59;5060970;28;20154;-68
2024/02/16 07:47:46;;;;;;;10.45;6.60;;;;;;;10.10;100.00;101424.13;5060599;28;20037;-68
2024/02/16 07:50:12;;;;;;;10.27;6.03;;;;;;;10.77;100.00;101503.59;5056102;28;20383;-67
2024/02/16 07:52:39;;;;;;;10.25;8.27;;;;;;;10.44;100.00;101517.25;5057613;28;20107;-68
2024/02/16 07:55:06;;;;;;;10.68;7.53;;;;;;;10.10;100.00;101362.34;5056272;28;20487;-68
2024/02/16 07:57:32;;;;;;;7.05;5.47;;;;;;;10.16;100.00;101335.19;5057123;28;20036;-68
2024/02/16 07:59:57;;;;;;;8.50;5.90;;;;;;;10.13;100.00;101383.50;5057594;28;20052;-70
2024/02/16 08:02:23;;;;;;;7.80;5.97;;;;;;;10.35;100.00;101287.66;5060126;28;20029;-67
2024/02/16 08:04:49;;;;;;;7.57;5.90;;;;;;;10.72;100.00;101331.47;5056369;28;20016;-67
2024/02/16 08:07:16;;;;;;;7.75;6.20;;;;;;;11.23;100.00;101235.19;5062403;28;20052;-67
2024/02/16 08:09:44;;;;;;;6.65;4.72;;;;;;;10.77;100.00;101240.72;5064611;28;20392;-67
2024/02/16 08:12:10;;;;;;;7.63;6.03;;;;;;;11.13;100.00;101199.69;5060027;28;20032;-66
2024/02/16 08:14:35;;;;;;;11.73;7.00;;;;;;;10.53;100.00;101079.03;5066077;28;20082;-67
2024/02/16 08:17:01;;;;;;;9.43;6.93;;;;;;;11.23;100.00;101216.53;5059819;28;20510;-67
2024/02/16 08:19:37;;;;;;;7.57;5.68;;;;;;;11.09;100.00;101236.19;5057506;28;20033;-69
2024/02/16 08:22:04;;;;;;;10.52;7.13;;;;;;;10.99;100.00;101033.59;5059715;28;20059;-68
2024/02/16 08:24:39;;;;;;;16.48;6.72;;;;;;;11.15;100.00;101007.91;5059738;28;20108;-68
2024/02/16 08:27:04;;;;;;;12.02;7.68;;;;;;;11.05;100.00;101086.94;5060704;28;20119;-68
2024/02/16 08:29:30;;;;;;;9.15;6.70;;;;;;;11.07;100.00;100955.44;5061960;28;20117;-68
2024/02/16 08:31:56;;;;;;;8.30;6.07;;;;;;;11.71;100.00;101069.94;5061139;28;20078;-69
2024/02/16 08:34:22;;;;;;;6.63;4.60;;;;;;;11.13;100.00;101012.16;5060226;28;20402;-67
2024/02/16 08:36:48;;;;;;;6.40;4.45;;;;;;;10.76;100.00;100944.00;5056311;28;20025;-74
2024/02/16 08:39:16;;;;;;;5.45;4.20;;;;;;;10.94;100.00;100938.66;5059184;28;20028;-67
2024/02/16 08:41:44;;;;;;;6.32;4.18;;;;;;;10.83;100.00;100915.09;5056670;28;20033;-69
2024/02/16 08:44:10;;;;;;;6.22;4.60;;;;;;;11.51;100.00;100988.69;5058012;28;20029;-68
2024/02/16 08:46:39;;;;;;;7.15;4.55;;;;;;;11.11;100.00;100916.38;5060234;28;20075;-68
2024/02/16 08:49:09;;;;;;;5.38;3.85;;;;;;;11.44;100.00;101027.00;5058032;28;20503;-67
2024/02/16 08:51:35;;;;;;;6.88;4.25;;;;;;;11.76;100.00;100997.69;5061770;28;20849;-70
2024/02/16 08:54:01;;;;;;;7.60;4.68;;;;;;;11.15;100.00;100864.56;5063469;28;20039;-68
2024/02/16 08:56:30;;;;;;;6.80;4.45;;;;;;;11.44;100.00;100908.19;5061374;28;20185;-68
2024/02/16 08:58:56;;;;;;;5.97;4.70;;;;;;;11.80;100.00;100989.13;5058729;28;20044;-68
2024/02/16 09:01:51;;;;;;;6.70;4.53;;;;;;;11.78;100.00;100974.72;5057458;28;20407;-68
2024/02/16 09:04:16;;;;;;;7.53;4.30;;;;;;;11.47;100.00;100981.97;5056014;28;20076;-68
2024/02/16 09:06:42;;;;;;;7.05;4.47;;;;;;;11.42;100.00;100983.75;5062135;28;20059;-68
2024/02/16 09:09:07;;;;;;;7.40;4.65;;;;;;;11.44;100.00;101027.00;5059054;28;20492;-69
2024/02/16 09:11:33;;;;;;;7.38;4.63;;;;;;;10.72;100.00;100922.84;5065811;28;20032;-69
2024/02/16 09:13:59;;;;;;;6.57;4.55;;;;;;;10.57;100.00;100953.56;5068827;28;20033;-68
2024/02/16 09:16:25;;;;;;;6.13;4.38;;;;;;;11.43;100.00;101010.88;5071144;28;20032;-69
2024/02/16 09:18:50;;;;;;;5.55;4.75;;;;;;;10.94;100.00;100952.22;5060775;28;20029;-75
2024/02/16 09:21:15;;;;;;;7.15;5.00;;;;;;;11.44;100.00;100992.22;5061567;28;20067;-68
2024/02/16 09:23:41;;;;;;;7.75;4.72;;;;;;;11.45;100.00;100810.56;5058961;28;20537;-67
2024/02/16 09:26:09;;;;;;;6.65;4.45;;;;;;;11.46;100.00;100798.69;5057222;28;20032;-70
2024/02/16 09:28:40;;;;;;;6.00;4.57;;;;;;;11.48;100.00;100858.91;5062762;28;20108;-68
2024/02/16 09:31:05;;;;;;;4.95;3.97;;;;;;;12.09;100.00;100920.63;5054629;28;20032;-68
2024/02/16 09:33:31;;;;;;;4.90;4.00;;;;;;;11.36;100.00;100805.66;5061649;28;20033;-68
2024/02/16 09:35:56;;;;;;;4.70;3.50;;;;;;;11.92;100.00;100749.38;5059085;28;20036;-68
2024/02/16 09:38:21;;;;;;;5.75;3.92;;;;;;;12.36;100.00;100803.69;5061765;28;20036;-75
2024/02/16 09:40:47;;;;;;;6.85;4.10;;;;;;;12.28;100.00;100825.94;5065398;28;20093;-69
2024/02/16 09:43:26;;;;;;;7.30;4.35;;;;;;;12.11;100.00;100893.41;5059841;28;20109;-69
2024/02/16 09:45:56;;;;;;;6.45;3.90;;;;;;;11.63;100.00;100766.94;5056581;28;20067;-69
2024/02/16 09:48:22;;;;;;;4.68;4.00;;;;;;;11.93;100.00;100732.38;5059902;28;20047;-69
2024/02/16 09:50:50;;;;;;;4.82;3.70;;;;;;;12.43;100.00;100779.69;5060213;28;20604;-69
2024/02/16 09:53:19;;;;;;;4.53;3.67;;;;;;;12.39;100.00;100784.03;5059255;28;20545;-72
2024/02/16 09:55:46;;;;;;;4.82;3.60;;;;;;;12.57;100.00;100605.06;5053579;28;20040;-68
2024/02/16 09:58:18;;;;;;;5.70;4.30;;;;;;;12.86;100.00;100640.84;5058792;28;20508;-69
2024/02/16 10:00:49;;;;;;;;;;;;;;;12.77;100.00;100732.97;5059693;28;20033;-69
2024/02/16 10:03:29;;;;;;;4.75;3.38;;;;;;;13.09;100.00;100658.16;5062328;28;19912;-69
2024/02/16 10:06:08;;;;;;;4.15;3.40;;;;;;;12.92;100.00;100520.75;5056802;28;20514;-68
2024/02/16 10:08:35;;;;;;;3.67;3.35;;;;;;;13.36;100.00;100608.00;5055524;28;20041;-69
2024/02/16 10:11:04;;;;;;;4.80;3.58;;;;;;;12.98;100.00;100471.22;5052304;28;20086;-69
2024/02/16 10:13:33;;;;;;;4.35;3.13;;;;;;;13.47;100.00;100562.56;5058728;28;20059;-69
2024/02/16 10:16:11;;;;;;;4.13;3.30;;;;;;;14.06;100.00;100505.25;5054141;28;20040;-70
2024/02/16 10:18:40;;;;;;;5.75;3.70;;;;;;;13.84;100.00;100484.66;5055455;28;20041;-70
2024/02/16 10:21:05;;;;;;;4.55;3.60;;;;;;;13.26;100.00;100598.94;5062669;28;20025;-68
2024/02/16 10:23:31;;;;;;;5.65;3.70;;;;;;;13.68;100.00;100447.75;5054781;28;20029;-66
2024/02/16 10:25:58;;;;;;;3.75;3.35;;;;;;;13.30;100.00;100563.06;4707678;28;10000546;-68
2024/02/16 10:28:27;;;;;;;4.55;3.50;;;;;;;13.63;100.00;100536.47;5056221;28;20037;-70
2024/02/16 10:30:59;;;;;;;3.80;3.38;;;;;;;13.49;100.00;100491.81;5055644;28;20029;-68
2024/02/16 10:33:25;;;;;;;4.03;3.45;;;;;;;13.32;100.00;100591.94;5056868;28;20047;-67
2024/02/16 10:35:52;;;;;;;3.92;3.30;;;;;;;12.65;100.00;100344.69;5057163;28;20040;-67
2024/02/16 10:38:19;;;;;;;3.90;3.40;;;;;;;12.70;100.00;100564.75;5055102;28;20039;-67
2024/02/16 10:40:48;;;;;;;4.80;3.53;;;;;;;12.75;100.00;100586.72;5051314;28;20040;-68
2024/02/16 10:43:15;;;;;;;5.00;3.70;;;;;;;12.24;100.00;100594.91;5049801;28;20383;-70
2024/02/16 10:45:40;;;;;;;4.03;3.40;;;;;;;12.85;100.00;100681.72;5051087;28;20196;-68
2024/02/16 10:48:07;;;;;;;5.70;3.80;;;;;;;12.46;100.00;100494.84;5053199;28;20521;-67
2024/02/16 10:50:34;;;;;;;5.70;4.47;;;;;;;13.46;100.00;100584.72;5050066;28;20068;-71
2024/02/16 10:53:08;;;;;;;6.07;4.50;;;;;;;13.15;100.00;100405.22;5050355;28;20036;-72
2024/02/16 10:55:34;;;;;;;5.30;4.20;;;;;;;13.63;100.00;100539.03;5055414;28;20032;-68
2024/02/16 10:58:00;;;;;;;6.65;4.40;;;;;;;12.95;100.00;100380.28;5055933;28;20079;-69
2024/02/16 11:00:26;;;;;;;4.65;3.63;;;;;;;14.11;100.00;100406.19;5054298;28;20037;-68
2024/02/16 11:02:55;;;;;;;6.28;3.80;;;;;;;13.00;100.00;100469.47;5053632;28;20024;-71
2024/02/16 11:05:35;;;;;;;6.15;3.85;;;;;;;13.17;100.00;100382.19;5056103;28;20124;-74
2024/02/16 11:08:05;;;;;;;7.15;4.13;;;;;;;13.37;100.00;100561.16;5056787;28;20115;-68
2024/02/16 11:10:31;;;;;;;4.97;3.90;;;;;;;13.45;100.00;100497.91;5053533;28;20471;-68